Time;durP1;ratioP1;P1;durP2;ratioP2;P2;SDS_P1;SDS_P2;PMS_P1;PMS_P2;Temp;Humidity;BMP_temperature;BMP_pressure;BME280_temperature;BME280_humidity;BME280_pressure;Samples;Min_cycle;Max_cycle;Signal;HPM_P1;HPM_P2
2022/01/09 00:04:00;;;;;;;3.25;2.92;;;4.50;57.20;;;2.73;64.37;99685.25;8330393;28;20136;-87
2022/01/09 00:08:02;;;;;;;4.95;3.65;;;4.50;57.20;;;2.73;63.85;99677.53;8297501;28;20030;-88
2022/01/09 00:12:04;;;;;;;3.42;3.00;;;4.50;57.00;;;2.74;63.88;99666.31;8298377;28;20117;-88
2022/01/09 00:16:06;;;;;;;4.05;2.80;;;4.50;57.10;;;2.74;63.94;99666.31;8291870;28;20116;-88
2022/01/09 00:20:10;;;;;;;3.45;3.03;;;4.50;57.00;;;2.72;63.96;99647.50;8295389;28;20048;-88
2022/01/09 00:24:12;;;;;;;3.70;2.90;;;4.50;57.10;;;2.71;63.79;99643.25;8296853;28;20544;-87
2022/01/09 00:28:13;;;;;;;4.03;2.85;;;4.50;57.10;;;2.60;64.09;99620.50;8290881;28;20105;-87
2022/01/09 00:32:15;;;;;;;3.88;2.92;;;4.50;57.00;;;2.68;63.92;99630.50;8275311;28;20558;-88
2022/01/09 00:36:17;;;;;;;4.82;2.45;;;4.50;56.80;;;2.66;63.70;99623.66;8297007;28;20125;-88
2022/01/09 00:40:19;;;;;;;2.90;2.70;;;4.50;56.90;;;2.51;63.87;99606.25;8297197;28;20406;-88
2022/01/09 00:44:20;;;;;;;3.35;2.58;;;4.40;56.80;;;2.65;63.92;99624.56;8295807;28;20112;-87
2022/01/09 00:48:21;;;;;;;4.10;2.85;;;4.40;56.90;;;2.60;64.01;99615.34;8293371;28;20117;-88
2022/01/09 00:52:23;;;;;;;3.72;2.75;;;4.40;56.90;;;2.63;63.90;99620.38;8296928;28;20120;-88
2022/01/09 00:56:44;;;;;;;5.82;2.30;;;4.40;56.90;;;2.61;63.75;99612.69;8312549;28;20159;-88
2022/01/09 01:00:46;;;;;;;3.13;2.35;;;4.40;56.80;;;2.43;63.49;99582.50;8294701;28;20120;-88
2022/01/09 01:05:20;;;;;;;3.40;2.35;;;4.40;56.90;;;2.54;63.79;99600.97;8312701;28;20109;-88
2022/01/09 01:09:52;;;;;;;3.13;2.22;;;4.40;56.80;;;2.52;63.43;99600.19;8284709;28;20113;-88
2022/01/09 01:13:54;;;;;;;3.72;3.42;;;4.30;56.80;;;2.43;63.68;99592.81;8296249;28;20117;-89
2022/01/09 01:17:56;;;;;;;3.65;2.75;;;4.30;56.80;;;2.37;63.42;99567.31;8288240;28;20128;-88
2022/01/09 01:21:59;;;;;;;5.97;2.95;;;4.10;56.80;;;2.41;63.59;99590.31;8278343;28;20049;-89
2022/01/09 01:26:02;;;;;;;3.95;2.42;;;4.20;56.90;;;2.39;63.47;99578.38;8295138;28;20120;-88
2022/01/09 01:30:05;;;;;;;3.58;3.13;;;4.20;56.90;;;2.36;63.58;99566.47;8310751;28;20125;-88
2022/01/09 01:34:07;;;;;;;4.93;3.20;;;4.20;57.00;;;2.21;63.73;99544.75;8294554;28;20120;-88
2022/01/09 01:38:09;;;;;;;3.83;2.65;;;4.10;56.90;;;2.35;63.44;99564.81;8274511;28;20669;-88
2022/01/09 01:42:10;;;;;;;3.45;3.00;;;4.10;57.00;;;2.32;63.79;99557.19;8294541;28;20044;-87
2022/01/09 01:46:12;;;;;;;5.65;3.35;;;4.10;57.00;;;2.30;63.43;99550.44;8295904;28;20133;-88
2022/01/09 01:50:14;;;;;;;4.35;3.33;;;4.00;56.90;;;2.19;63.52;99530.25;8289144;28;20128;-88
2022/01/09 01:54:16;;;;;;;3.88;3.30;;;4.00;56.90;;;2.19;63.48;99535.41;8276031;28;20117;-88
2022/01/09 01:58:17;;;;;;;4.97;3.33;;;4.00;57.00;;;2.25;63.56;99536.91;8286528;28;20121;-87
2022/01/09 02:02:19;;;;;;;6.70;3.20;;;3.90;56.90;;;2.22;63.73;99519.84;8293853;28;20040;-87
2022/01/09 02:08:04;;;;;;;5.78;3.05;;;4.00;57.00;;;2.09;63.53;99510.91;8294583;28;20116;-87
2022/01/09 02:12:05;;;;;;;4.05;3.35;;;3.90;57.00;;;2.13;63.88;99518.47;8278595;28;20136;-87
2022/01/09 02:16:16;;;;;;;6.35;3.70;;;4.00;57.10;;;1.98;63.73;99496.72;8294991;28;20121;-87
2022/01/09 02:20:18;;;;;;;5.97;3.38;;;3.70;56.90;;;2.09;63.38;99505.78;8281285;28;20414;-87
2022/01/09 02:24:22;;;;;;;6.00;4.25;;;3.80;57.00;;;2.00;63.64;99499.25;8303413;28;20121;-87
2022/01/09 02:28:26;;;;;;;6.78;3.53;;;3.80;56.90;;;2.06;63.65;99504.16;8249435;28;20117;-86
2022/01/09 02:32:28;;;;;;;3.75;3.00;;;3.80;57.10;;;1.98;63.55;99483.03;8293181;28;20133;-86
2022/01/09 02:36:30;;;;;;;4.30;2.78;;;3.80;57.10;;;1.97;63.72;99473.59;8292326;28;20132;-86
2022/01/09 02:40:33;;;;;;;4.82;3.28;;;3.70;57.10;;;2.02;63.62;99473.44;8305027;28;20044;-86
2022/01/09 02:44:34;;;;;;;5.28;3.22;;;3.60;57.00;;;1.94;63.84;99458.28;8293620;28;20116;-86
2022/01/09 02:48:38;;;;;;;5.18;3.58;;;3.80;57.10;;;1.99;63.71;99466.66;8272971;28;20467;-86
2022/01/09 02:52:50;;;;;;;4.00;3.60;;;3.80;57.10;;;1.95;63.62;99460.00;8298408;28;20121;-85
2022/01/09 02:56:51;;;;;;;5.28;3.10;;;3.80;57.10;;;1.75;63.63;99420.41;8298930;28;20109;-86
2022/01/09 03:00:53;;;;;;;4.43;3.10;;;3.80;57.10;;;1.79;63.34;99422.91;8297127;28;20132;-85
2022/01/09 03:04:54;;;;;;;6.60;3.65;;;3.80;57.10;;;1.96;63.99;99448.78;8299501;28;20117;-85
2022/01/09 03:09:00;;;;;;;5.63;3.40;;;3.80;57.50;;;1.93;63.81;99436.88;8299384;28;20120;-85
2022/01/09 03:13:04;;;;;;;4.43;3.42;;;3.70;57.00;;;1.74;63.66;99403.31;8291654;28;20116;-85
2022/01/09 03:17:05;;;;;;;6.95;4.18;;;3.50;56.90;;;1.94;63.56;99437.69;8298543;28;20121;-84
2022/01/09 03:21:07;;;;;;;6.40;3.53;;;3.70;57.10;;;1.93;63.63;99425.75;8298474;28;20034;-84
2022/01/09 03:25:10;;;;;;;5.47;3.17;;;3.80;57.40;;;1.87;63.88;99407.97;8291967;28;20112;-85
2022/01/09 03:29:11;;;;;;;4.07;3.17;;;3.60;57.00;;;1.92;63.86;99412.03;8289677;28;20136;-84
2022/01/09 03:33:13;;;;;;;7.13;3.03;;;3.60;57.00;;;1.80;63.98;99391.94;8297169;28;20101;-84
2022/01/09 03:37:14;;;;;;;5.78;3.20;;;3.60;57.10;;;1.90;64.15;99392.41;8298652;28;20124;-84
2022/01/09 03:41:16;;;;;;;5.50;3.20;;;4.00;57.20;;;1.92;63.96;99393.19;8284264;28;20124;-84
2022/01/09 03:45:18;;;;;;;6.05;3.20;;;3.70;57.10;;;1.91;63.71;99404.38;8298921;28;20493;-85
2022/01/09 03:49:19;;;;;;;5.05;3.42;;;3.70;57.00;;;1.80;63.62;99398.81;8303014;28;20113;-85
2022/01/09 03:53:21;;;;;;;8.45;3.58;;;3.60;57.00;;;1.89;64.04;99411.31;8280469;28;20137;-85
2022/01/09 03:57:23;;;;;;;4.53;3.30;;;3.70;57.00;;;1.89;63.58;99411.31;8305189;28;20037;-84
2022/01/09 04:01:24;;;;;;;6.45;3.55;;;3.70;57.00;;;1.89;63.68;99413.88;8295221;28;20112;-84
2022/01/09 04:05:26;;;;;;;6.47;4.15;;;3.70;57.00;;;1.87;63.65;99413.13;8297440;28;20554;-84
2022/01/09 04:09:37;;;;;;;5.95;3.60;;;3.70;56.80;;;1.88;63.72;99412.22;8297472;28;20117;-84
2022/01/09 04:13:39;;;;;;;5.20;3.40;;;3.90;57.00;;;1.89;63.95;99401.00;8292697;28;20140;-84
2022/01/09 04:17:58;;;;;;;5.28;3.13;;;3.70;57.00;;;1.88;63.58;99394.19;8297731;28;20523;-84
2022/01/09 04:22:13;;;;;;;6.35;3.70;;;3.70;56.90;;;1.89;63.59;99395.88;8271873;28;20036;-83
2022/01/09 04:26:14;;;;;;;3.85;2.75;;;3.70;56.90;;;1.88;63.96;99401.94;8296831;28;20044;-84
2022/01/09 04:30:16;;;;;;;7.20;3.72;;;3.70;56.90;;;1.66;63.52;99345.34;8278946;28;20125;-84
2022/01/09 04:34:18;;;;;;;4.90;2.97;;;3.40;56.70;;;1.74;63.78;99369.88;8284894;28;20589;-84
2022/01/09 04:38:19;;;;;;;6.65;3.55;;;3.70;56.90;;;1.75;63.39;99350.13;8291904;28;20124;-84
2022/01/09 04:42:27;;;;;;;4.20;2.97;;;3.70;56.80;;;1.81;63.70;99342.16;8282979;28;20120;-84
2022/01/09 04:46:39;;;;;;;5.07;2.85;;;3.70;57.20;;;1.76;63.90;99339.75;8292112;28;20108;-84
2022/01/09 04:50:42;;;;;;;5.18;3.03;;;3.70;56.90;;;1.72;63.68;99343.34;8295709;28;20104;-84
2022/01/09 04:54:44;;;;;;;5.15;3.30;;;3.70;56.90;;;1.83;63.67;99353.19;8292702;28;20132;-84
2022/01/09 04:58:45;;;;;;;4.75;3.28;;;3.60;56.80;;;1.77;63.69;99338.84;8296249;28;20116;-84
2022/01/09 05:02:47;;;;;;;5.88;3.40;;;3.60;56.90;;;1.81;63.70;99341.28;8286289;28;20467;-84
2022/01/09 05:06:49;;;;;;;6.13;3.53;;;3.70;56.90;;;1.80;63.86;99339.63;8293794;28;20486;-84
2022/01/09 05:10:50;;;;;;;6.10;3.63;;;3.70;56.90;;;1.79;63.29;99328.50;8309224;28;20122;-84
2022/01/09 05:14:52;;;;;;;7.47;3.92;;;3.50;56.80;;;1.77;63.40;99335.44;8291134;28;20140;-84
2022/01/09 05:19:01;;;;;;;6.13;3.63;;;3.80;56.90;;;1.75;63.65;99319.22;8292964;28;20581;-83
2022/01/09 05:23:02;;;;;;;5.30;4.32;;;3.60;56.90;;;1.75;63.57;99334.66;8285859;28;20574;-84
2022/01/09 05:27:21;;;;;;;3.90;3.13;;;3.60;56.90;;;1.76;64.04;99329.47;8295036;28;20178;-85
2022/01/09 05:31:32;;;;;;;7.07;3.30;;;3.60;56.90;;;1.77;63.79;99336.28;8293791;28;20501;-84
2022/01/09 05:35:33;;;;;;;6.70;3.70;;;3.60;56.90;;;1.69;63.72;99319.50;8293217;28;20112;-83
2022/01/09 05:39:35;;;;;;;7.88;3.67;;;3.60;56.90;;;1.80;63.55;99344.78;8290241;28;20542;-84
2022/01/09 05:43:39;;;;;;;6.43;3.60;;;3.50;56.90;;;1.81;63.61;99342.16;8306982;28;20036;-83
2022/01/09 05:47:40;;;;;;;8.13;4.20;;;3.60;57.00;;;1.85;63.67;99335.97;8286081;28;20527;-84
2022/01/09 05:51:42;;;;;;;5.70;3.40;;;3.60;56.90;;;1.86;63.75;99334.22;8292821;28;20353;-84
2022/01/09 05:55:44;;;;;;;8.10;4.38;;;3.60;56.90;;;1.86;63.79;99334.22;8305645;28;20552;-83
2022/01/09 05:59:45;;;;;;;6.03;3.67;;;3.60;56.80;;;1.84;63.62;99324.00;8291099;28;20061;-83
2022/01/09 06:03:47;;;;;;;5.18;3.38;;;3.70;56.90;;;1.89;63.75;99326.38;8301560;28;20505;-84
2022/01/09 06:07:48;;;;;;;8.43;3.50;;;3.70;56.80;;;1.90;63.60;99333.22;8294270;28;20124;-83
2022/01/09 06:11:50;;;;;;;4.00;2.90;;;3.70;56.90;;;1.91;63.58;99322.81;8291477;28;20510;-84
2022/01/09 06:15:51;;;;;;;6.57;3.25;;;3.80;57.20;;;1.99;63.66;99325.09;8289205;28;20225;-83
2022/01/09 06:19:53;;;;;;;5.68;4.10;;;3.80;56.80;;;2.02;63.60;99326.69;8307812;28;20142;-84
2022/01/09 06:23:54;;;;;;;5.43;3.33;;;3.80;56.70;;;2.02;64.00;99319.81;8299665;28;20402;-83
2022/01/09 06:27:56;;;;;;;5.45;3.35;;;3.80;56.70;;;1.99;63.78;99313.03;8293370;28;20109;-83
2022/01/09 06:31:57;;;;;;;5.30;3.60;;;3.80;56.70;;;2.07;63.82;99322.19;8300178;28;20116;-84
2022/01/09 06:35:59;;;;;;;7.72;3.78;;;4.30;56.90;;;2.07;63.70;99323.03;8293417;28;20550;-83
2022/01/09 06:40:01;;;;;;;5.30;3.40;;;3.90;56.60;;;2.12;63.43;99331.38;8299824;28;20173;-84
2022/01/09 06:44:02;;;;;;;6.85;3.83;;;3.80;56.50;;;2.08;63.71;99326.41;8298432;28;20156;-83
2022/01/09 06:48:04;;;;;;;4.95;3.30;;;3.90;56.70;;;2.12;63.74;99326.22;8315028;28;20130;-83
2022/01/09 06:52:06;;;;;;;4.93;2.88;;;3.90;56.70;;;1.85;63.40;99286.22;8299569;28;20120;-84
2022/01/09 06:56:08;;;;;;;7.05;3.72;;;3.90;56.60;;;2.15;63.37;99327.84;8294712;28;20535;-83
2022/01/09 07:00:12;;;;;;;6.95;4.18;;;4.00;56.60;;;2.16;63.46;99329.50;8298502;28;20113;-83
2022/01/09 07:04:26;;;;;;;9.32;4.00;;;4.00;56.60;;;2.17;63.33;99328.63;8292322;28;20041;-83
2022/01/09 07:08:33;;;;;;;6.32;4.45;;;4.00;56.50;;;2.19;63.64;99321.66;8297195;28;20121;-83
2022/01/09 07:12:36;;;;;;;5.93;3.60;;;4.00;56.40;;;2.17;63.50;99316.56;8298860;28;20112;-84
2022/01/09 07:16:37;;;;;;;6.50;3.72;;;4.00;56.50;;;2.18;63.50;99320.81;8278742;28;20440;-83
2022/01/09 07:20:39;;;;;;;5.47;3.72;;;3.90;56.50;;;1.95;63.23;99282.38;8294514;28;20117;-83
2022/01/09 07:24:41;;;;;;;6.68;3.72;;;3.90;56.40;;;1.97;63.40;99288.25;8291123;28;20113;-82
2022/01/09 07:28:42;;;;;;;5.80;3.33;;;3.90;56.30;;;2.17;63.16;99318.31;8293647;28;20105;-82
2022/01/09 07:32:44;;;;;;;5.50;3.63;;;3.80;56.40;;;2.18;63.49;99327.69;8293078;28;20045;-82
2022/01/09 07:36:46;;;;;;;7.03;3.90;;;4.10;56.50;;;2.09;63.13;99313.50;8297589;28;20121;-83
2022/01/09 07:45:29;;;;;;;5.65;3.63;;;4.00;56.50;;;2.20;63.31;99329.31;8345651;23;20034;-83
2022/01/09 07:49:30;;;;;;;6.03;3.50;;;4.00;56.40;;;2.07;63.50;99307.56;8248280;28;20040;-86
2022/01/09 07:53:32;;;;;;;4.78;3.65;;;4.40;56.70;;;2.10;63.16;99312.59;8204505;28;20041;-85
2022/01/09 07:57:34;;;;;;;3.85;3.30;;;4.00;56.50;;;2.23;63.43;99328.34;8215019;28;20546;-82
2022/01/09 08:01:35;;;;;;;5.22;3.80;;;4.00;56.50;;;2.24;63.29;99329.19;8217947;28;20043;-81
2022/01/09 08:05:50;;;;;;;5.15;3.50;;;4.00;56.40;;;2.13;63.30;99309.91;8231548;28;20408;-81
2022/01/09 08:10:01;;;;;;;4.88;3.33;;;4.00;56.40;;;2.29;63.43;99328.06;8214740;28;20540;-80
2022/01/09 08:14:03;;;;;;;5.43;3.75;;;3.90;56.40;;;2.12;63.57;99300.50;8217639;28;20137;-83
2022/01/09 08:18:04;;;;;;;6.80;3.15;;;4.10;56.50;;;2.24;63.23;99308.56;8214885;28;20121;-82
2022/01/09 08:22:07;;;;;;;5.25;3.47;;;4.00;56.50;;;2.24;63.37;99309.41;8228296;28;20389;-82
2022/01/09 08:26:09;;;;;;;7.15;3.80;;;4.20;56.40;;;2.20;63.08;99293.25;8207247;28;20034;-81
2022/01/09 08:30:12;;;;;;;5.22;3.42;;;4.20;56.30;;;2.47;63.35;99333.34;8208244;28;20034;-82
2022/01/09 08:34:14;;;;;;;4.72;3.08;;;4.10;56.40;;;2.49;63.23;99334.09;8223863;28;20044;-82
2022/01/09 08:38:15;;;;;;;6.18;3.30;;;4.30;56.40;;;2.54;63.21;99327.84;8229125;28;20051;-83
2022/01/09 08:42:17;;;;;;;4.22;3.10;;;4.10;56.20;;;2.59;63.25;99333.63;8199258;28;20043;-83
2022/01/09 08:46:19;;;;;;;6.22;3.13;;;4.40;56.50;;;2.44;63.09;99298.22;8221940;28;20034;-83
2022/01/09 08:50:20;;;;;;;5.57;3.15;;;4.10;56.40;;;2.53;63.40;99312.44;8234891;28;20042;-82
2022/01/09 08:54:22;;;;;;;5.15;3.33;;;4.30;56.30;;;2.70;62.89;99321.97;8220339;28;20389;-83
2022/01/09 08:58:24;;;;;;;5.13;3.33;;;4.50;56.20;;;2.71;63.50;99326.25;8197566;28;20034;-83
2022/01/09 09:02:25;;;;;;;5.80;4.13;;;4.50;56.10;;;2.55;63.26;99298.56;8220036;28;20115;-83
2022/01/09 09:06:27;;;;;;;3.90;2.75;;;4.50;56.00;;;2.81;63.30;99333.47;8217506;28;20041;-82
2022/01/09 09:10:28;;;;;;;6.93;2.88;;;4.50;56.20;;;2.71;63.34;99314.19;8222710;28;20038;-82
2022/01/09 09:14:31;;;;;;;3.15;2.28;;;4.40;56.30;;;2.87;63.32;99334.94;8220455;28;20560;-82
2022/01/09 09:18:32;;;;;;;5.28;2.83;;;4.60;56.20;;;2.71;63.15;99303.88;8203366;28;20038;-83
2022/01/09 09:22:35;;;;;;;2.80;2.50;;;4.60;56.10;;;2.97;63.33;99338.78;8222080;28;20041;-82
2022/01/09 09:26:37;;;;;;;3.58;2.42;;;5.10;56.10;;;2.94;63.22;99331.16;8212934;28;20102;-83
2022/01/09 09:30:38;;;;;;;4.65;2.65;;;4.80;56.20;;;2.84;63.29;99304.16;8216553;28;20047;-83
2022/01/09 09:34:41;;;;;;;4.25;2.42;;;4.80;56.10;;;3.05;63.21;99343.53;8220086;28;20056;-83
2022/01/09 09:38:42;;;;;;;3.47;2.78;;;4.90;56.20;;;3.10;63.32;99352.75;8213193;28;20049;-82
2022/01/09 09:42:44;;;;;;;3.22;2.85;;;4.90;56.00;;;3.12;63.01;99338.97;8221645;28;20035;-83
2022/01/09 09:46:51;;;;;;;2.33;2.10;;;4.80;55.70;;;3.13;63.21;99338.88;8219851;28;20392;-83
2022/01/09 09:50:53;;;;;;;2.35;2.03;;;4.70;55.80;;;3.19;63.09;99350.66;8217392;28;20492;-83
2022/01/09 09:55:13;;;;;;;4.25;2.50;;;4.80;56.00;;;3.25;63.04;99355.53;8210622;28;20046;-83
2022/01/09 09:59:38;;;;;;;3.97;2.55;;;5.00;55.90;;;3.12;63.44;99328.63;8204622;28;20047;-83
2022/01/09 10:03:39;;;;;;;3.30;2.30;;;5.10;55.90;;;3.13;63.09;99331.13;8204321;28;20050;-83
2022/01/09 10:07:41;;;;;;;2.95;2.30;;;5.10;56.00;;;3.36;63.11;99367.91;8221317;28;20053;-83
2022/01/09 10:12:00;;;;;;;2.92;2.03;;;5.10;55.70;;;3.35;62.88;99359.34;8204478;28;20431;-83
2022/01/09 10:16:02;;;;;;;2.80;1.77;;;5.20;55.90;;;3.31;63.08;99340.59;8220283;28;20403;-84
2022/01/09 10:20:17;;;;;;;2.78;2.00;;;5.10;56.10;;;3.27;62.98;99325.34;8202640;28;20526;-82
2022/01/09 10:24:18;;;;;;;2.90;2.70;;;5.30;55.90;;;3.35;62.88;99323.22;8208224;28;20049;-83
2022/01/09 10:28:22;;;;;;;4.07;2.30;;;5.30;55.80;;;3.46;63.15;99351.94;8218636;28;20061;-83
2022/01/09 10:32:29;;;;;;;3.80;2.22;;;5.30;56.10;;;3.44;62.77;99325.34;8208683;28;20069;-83
2022/01/09 10:36:51;;;;;;;2.20;1.73;;;5.40;56.10;;;3.58;62.84;99349.66;8218650;28;20038;-83
2022/01/09 10:40:57;;;;;;;1.92;1.73;;;5.40;56.20;;;3.63;63.15;99358.00;8218759;28;20439;-83
2022/01/09 10:45:40;;;;;;;4.15;2.30;;;5.20;56.10;;;3.69;63.17;99344.81;8196362;28;20051;-82
2022/01/09 10:49:46;;;;;;;2.65;1.83;;;5.30;55.60;;;3.49;62.97;99307.06;8101596;29;20040;-83
2022/01/09 10:53:50;;;;;;;2.33;2.03;;;5.60;56.20;;;3.80;62.92;99342.53;8163919;28;20046;-82
2022/01/09 10:57:52;;;;;;;3.47;2.50;;;5.50;56.10;;;3.84;62.90;99349.22;8219038;28;20039;-82
2022/01/09 11:02:00;;;;;;;2.78;2.38;;;5.90;55.90;;;3.90;63.00;99351.47;8221003;28;20043;-83
2022/01/09 11:06:03;;;;;;;2.75;1.88;;;5.70;56.00;;;3.94;63.12;99353.03;8210437;28;20033;-83
2022/01/09 11:10:07;;;;;;;2.90;2.35;;;5.50;56.00;;;3.83;62.84;99337.19;8207120;28;20498;-85
2022/01/09 11:14:14;;;;;;;2.65;1.80;;;5.80;56.10;;;4.11;62.80;99366.81;8208489;28;20084;-80
2022/01/09 11:18:15;;;;;;;2.30;1.77;;;5.80;56.20;;;3.98;62.87;99341.59;8219106;28;20045;-83
2022/01/09 11:22:21;;;;;;;2.80;2.28;;;5.70;56.20;;;4.16;62.91;99367.44;8208807;28;20043;-84
2022/01/09 11:26:30;;;;;;;2.97;2.13;;;6.00;55.90;;;4.23;63.00;99379.09;8224884;28;20041;-84
2022/01/09 11:31:23;;;;;;;2.95;2.00;;;5.80;56.00;;;4.16;62.61;99354.53;8208204;28;20037;-85
2022/01/09 11:36:08;;;;;;;3.92;2.20;;;6.00;56.00;;;4.32;62.89;99378.66;8227101;28;20047;-85
2022/01/09 11:40:26;;;;;;;4.50;2.88;;;6.10;55.80;;;4.33;62.71;99374.31;8214370;28;20031;-84
2022/01/09 11:44:31;;;;;;;3.75;2.45;;;6.00;55.50;;;4.42;63.25;99386.75;8213803;28;20487;-85
2022/01/09 11:48:51;;;;;;;4.40;2.30;;;6.20;55.90;;;4.44;62.77;99375.41;8213428;28;20031;-84
2022/01/09 11:53:00;;;;;;;3.30;2.08;;;6.20;55.90;;;4.45;62.77;99378.84;8212243;28;20065;-84
2022/01/09 11:57:10;;;;;;;3.13;2.10;;;6.20;56.00;;;4.33;62.96;99358.81;8209999;28;20042;-84
2022/01/09 12:01:35;;;;;;;2.75;2.03;;;6.30;56.10;;;4.55;62.81;99382.63;8221482;28;20041;-85
2022/01/09 12:06:03;;;;;;;2.57;2.23;;;6.30;56.10;;;4.61;62.90;99391.81;8215022;28;20038;-85
2022/01/09 12:10:36;;;;;;;3.30;2.90;;;6.40;56.00;;;4.59;62.74;99388.47;8208947;28;20065;-81
2022/01/09 12:20:03;;;;;;;3.72;2.65;;;6.40;55.80;;;4.71;62.82;99399.94;8218882;28;20078;-85
2022/01/09 12:24:41;;;;;;;2.72;2.38;;;6.40;55.60;;;4.56;62.78;99373.13;8205504;28;20049;-84
2022/01/09 12:28:45;;;;;;;3.45;2.20;;;6.50;55.50;;;4.79;62.56;99411.53;8211828;28;20057;-86
2022/01/09 12:32:47;;;;;;;2.72;2.03;;;6.50;56.00;;;4.78;62.63;99404.69;8186850;28;20033;-86
2022/01/09 12:36:54;;;;;;;2.88;2.00;;;6.60;56.20;;;4.86;62.62;99412.88;8200399;28;20053;-88
2022/01/09 12:41:08;;;;;;;2.85;1.65;;;6.60;56.00;;;4.64;62.49;99377.00;8221299;28;20038;-84
2022/01/09 12:45:10;;;;;;;3.17;2.40;;;6.60;56.10;;;4.96;62.77;99420.97;8225941;28;20388;-85
2022/01/09 12:49:14;;;;;;;2.42;2.20;;;6.70;55.90;;;4.88;62.56;99402.44;8227201;28;20037;-84
2022/01/09 12:53:19;;;;;;;2.80;1.88;;;6.70;55.80;;;4.80;62.39;99391.66;8222657;28;20107;-84
2022/01/09 12:57:20;;;;;;;3.90;2.95;;;6.70;56.00;;;5.08;62.44;99433.28;8217236;28;20038;-84
2022/01/09 13:01:23;;;;;;;3.45;2.40;;;6.70;55.80;;;5.12;62.54;99440.88;8214730;28;20049;-84
2022/01/09 13:05:27;;;;;;;3.53;2.47;;;6.80;55.80;;;5.05;62.80;99427.41;8219342;28;20436;-84
2022/01/09 13:09:31;;;;;;;2.40;2.05;;;6.80;55.90;;;5.15;62.13;99448.47;8222397;28;20789;-84
2022/01/09 13:13:35;;;;;;;2.63;2.15;;;6.90;56.10;;;5.19;62.43;99458.56;8222606;28;20042;-83
2022/01/09 13:17:47;;;;;;;2.33;1.80;;;6.90;56.00;;;5.18;62.20;99459.47;8222263;28;20045;-85
2022/01/09 13:21:51;;;;;;;2.42;2.22;;;6.90;55.90;;;4.96;62.31;99418.41;8218974;28;20546;-85
2022/01/09 13:25:54;;;;;;;1.53;1.40;;;7.00;56.00;;;5.07;62.65;99447.09;8214877;28;20045;-85
2022/01/09 13:29:56;;;;;;;4.10;1.98;;;7.00;56.10;;;5.23;62.95;99473.00;8212632;28;20049;-84
2022/01/09 13:34:05;;;;;;;3.03;2.28;;;7.00;56.10;;;5.28;62.36;99472.78;8222063;28;20096;-87
2022/01/09 13:38:08;;;;;;;2.78;1.90;;;7.00;56.10;;;5.27;62.45;99474.53;8206314;28;20055;-87
2022/01/09 13:42:22;;;;;;;2.88;2.30;;;7.00;56.10;;;5.21;62.82;99474.00;8215697;28;20053;-88
2022/01/09 13:46:23;;;;;;;3.40;2.20;;;7.00;56.00;;;5.35;62.71;99496.56;8215811;28;20027;-85
2022/01/09 13:50:35;;;;;;;12.35;4.78;;;7.10;56.20;;;5.24;62.58;99474.69;8204102;28;20039;-85
2022/01/09 13:54:37;;;;;;;7.07;3.38;;;7.10;56.10;;;5.36;62.56;99496.50;8202388;28;20039;-84
2022/01/09 13:58:38;;;;;;;5.70;2.83;;;7.10;56.20;;;5.05;62.27;99453.28;8217238;28;20037;-85
2022/01/09 14:02:42;;;;;;;2.53;2.25;;;7.20;56.30;;;5.33;62.65;99486.31;8217721;28;20045;-88
2022/01/09 14:06:59;;;;;;;3.45;2.45;;;7.20;56.20;;;5.44;62.40;99514.22;8199109;28;20045;-86
2022/01/09 14:11:07;;;;;;;4.10;2.50;;;7.20;56.30;;;5.47;62.57;99509.69;8209887;28;20045;-86
2022/01/09 14:15:16;;;;;;;2.47;2.17;;;7.20;56.30;;;5.48;62.68;99519.16;8222472;28;20046;-86
2022/01/09 14:19:18;;;;;;;3.03;2.00;;;7.20;56.20;;;5.36;62.27;99503.44;8197275;28;20039;-86
2022/01/09 14:23:19;;;;;;;2.08;1.80;;;7.10;56.20;;;5.16;62.07;99470.81;8217928;28;20049;-88
2022/01/09 14:27:36;;;;;;;3.47;2.05;;;7.10;56.20;;;5.39;62.34;99522.22;8196287;28;20045;-86
2022/01/09 14:31:38;;;;;;;2.47;1.92;;;7.30;56.10;;;5.54;62.59;99538.69;8210264;28;20130;-85
2022/01/09 14:35:45;;;;;;;2.08;1.77;;;7.30;56.30;;;5.52;62.59;99536.16;8221752;28;20038;-86
2022/01/09 14:39:46;;;;;;;1.95;1.75;;;7.30;56.20;;;5.52;62.15;99540.53;8199069;28;20038;-86
2022/01/09 14:43:48;;;;;;;2.90;1.88;;;7.30;56.20;;;5.52;62.67;99541.34;8218241;28;20039;-86
2022/01/09 14:47:50;;;;;;;2.65;2.28;;;7.30;56.20;;;5.40;62.77;99542.03;8226586;28;20041;-86
2022/01/09 14:51:51;;;;;;;1.77;1.67;;;7.30;56.20;;;5.50;62.20;99563.06;8223160;28;20041;-88
2022/01/09 14:55:54;;;;;;;2.58;2.03;;;7.30;56.30;;;5.17;62.60;99514.75;8226937;28;20042;-88
2022/01/09 14:59:56;;;;;;;2.20;1.63;;;7.30;56.30;;;5.48;62.07;99568.34;8219023;28;20038;-87
2022/01/09 15:03:58;;;;;;;1.70;1.58;;;7.20;56.30;;;5.29;62.11;99550.34;8212657;28;20043;-88
2022/01/09 15:08:01;;;;;;;2.38;2.05;;;7.20;56.10;;;5.48;62.23;99583.00;8208925;28;20046;-87
2022/01/09 15:12:03;;;;;;;2.85;2.00;;;7.20;56.20;;;5.42;62.26;99581.59;8220876;28;20045;-87
2022/01/09 15:16:05;;;;;;;3.72;1.85;;;7.20;56.30;;;5.40;62.50;99588.63;8219974;28;20043;-88
2022/01/09 15:20:07;;;;;;;1.83;1.73;;;7.20;56.30;;;5.36;62.50;99581.09;8218339;28;20444;-87
2022/01/09 15:24:08;;;;;;;2.80;2.08;;;7.20;56.30;;;5.34;62.59;99588.91;8226583;28;20061;-87
2022/01/09 15:28:10;;;;;;;2.28;2.03;;;7.10;56.20;;;5.47;62.43;99615.00;8219780;28;20041;-87
2022/01/09 15:32:12;;;;;;;2.33;1.90;;;7.20;56.30;;;5.51;62.53;99632.06;8227606;28;20034;-88
2022/01/09 15:36:13;;;;;;;2.17;1.80;;;7.20;56.40;;;5.50;62.63;99638.97;8219581;28;20618;-87
2022/01/09 15:40:15;;;;;;;2.15;1.95;;;7.20;56.40;;;5.40;62.52;99621.41;8237842;28;20042;-88
2022/01/09 15:44:17;;;;;;;2.30;1.63;;;7.20;56.30;;;5.45;62.17;99643.56;8226981;28;20047;-88
2022/01/09 15:48:19;;;;;;;2.20;2.00;;;7.20;56.40;;;5.45;62.34;99648.72;8221132;28;20049;-88
2022/01/09 15:52:21;;;;;;;2.50;1.90;;;7.20;56.30;;;5.48;62.29;99663.28;8217910;28;20041;-88
2022/01/09 15:56:23;;;;;;;2.92;2.05;;;7.20;56.40;;;5.41;62.04;99647.22;8219012;28;20035;-87
2022/01/09 16:00:25;;;;;;;2.50;1.83;;;7.20;56.40;;;5.32;62.06;99640.78;8226807;28;20038;-88
2022/01/09 16:04:27;;;;;;;3.17;2.10;;;7.00;56.40;;;5.45;62.58;99666.84;8218596;28;20043;-88
2022/01/09 16:08:32;;;;;;;1.85;1.75;;;7.20;56.50;;;5.35;62.09;99655.31;8223387;28;20491;-87
2022/01/09 16:12:36;;;;;;;2.50;2.10;;;6.90;56.40;;;5.37;62.47;99670.75;8226267;28;20042;-88
2022/01/09 16:16:38;;;;;;;2.65;2.38;;;7.10;56.50;;;5.39;62.53;99679.28;8214625;28;20034;-88
2022/01/09 16:20:40;;;;;;;2.50;1.83;;;7.10;56.50;;;5.39;62.70;99687.06;8207978;28;20403;-89
2022/01/09 16:24:42;;;;;;;1.60;1.50;;;7.10;56.50;;;5.35;62.13;99694.16;8218914;28;20046;-91
2022/01/09 16:28:44;;;;;;;2.25;2.00;;;7.10;56.60;;;5.30;62.34;99683.19;8212279;28;20027;-89
2022/01/09 16:32:45;;;;;;;2.90;1.92;;;7.10;56.60;;;5.28;62.07;99692.78;8205506;28;20039;-88
2022/01/09 16:36:47;;;;;;;2.40;1.85;;;7.10;56.60;;;5.27;62.37;99686.75;8215046;28;20053;-91
2022/01/09 16:40:48;;;;;;;2.90;2.47;;;6.90;56.50;;;5.25;62.54;99692.94;8229123;28;20052;-90
2022/01/09 16:44:50;;;;;;;2.58;1.80;;;7.10;56.60;;;5.32;62.22;99715.84;8202899;28;20049;-90
2022/01/09 16:48:51;;;;;;;2.00;1.88;;;6.90;56.50;;;5.17;62.55;99692.47;8233915;28;20043;-90
2022/01/09 16:52:53;;;;;;;2.20;2.00;;;7.10;56.60;;;5.25;62.08;99719.63;8221032;28;20052;-90
2022/01/09 16:56:55;;;;;;;2.03;1.83;;;7.10;56.70;;;5.26;62.09;99730.81;8210434;28;20415;-90
2022/01/09 17:00:57;;;;;;;3.10;2.22;;;6.90;56.60;;;5.33;62.50;99740.81;8221663;28;20043;-89
2022/01/09 17:04:58;;;;;;;1.80;1.70;;;7.10;56.70;;;5.36;62.57;99749.34;8225529;28;20042;-89
2022/01/09 17:09:00;;;;;;;2.13;1.92;;;7.00;56.70;;;5.36;62.33;99763.13;8227292;28;20604;-89
2022/01/09 17:13:01;;;;;;;2.22;2.00;;;7.10;56.70;;;5.39;62.31;99775.06;8207389;28;20050;-89
2022/01/09 17:17:04;;;;;;;2.70;1.80;;;7.10;56.80;;;5.23;62.26;99751.69;8227523;28;20938;-88
2022/01/09 17:21:08;;;;;;;2.00;1.83;;;7.00;56.80;;;5.26;62.36;99765.31;8208763;28;20049;-90
2022/01/09 17:25:10;;;;;;;2.25;2.05;;;7.10;56.80;;;5.20;62.22;99767.38;8226885;28;20043;-90
2022/01/09 17:29:14;;;;;;;3.40;2.17;;;7.00;56.80;;;5.35;62.08;99808.06;8219546;28;20121;-90
2022/01/09 17:33:15;;;;;;;2.13;2.03;;;6.90;56.80;;;5.27;62.34;99795.47;8225766;28;20046;-90
2022/01/09 17:37:17;;;;;;;2.53;2.20;;;7.00;56.90;;;5.23;62.68;99793.94;8211425;28;20126;-90
2022/01/09 17:41:18;;;;;;;2.45;2.08;;;7.00;56.90;;;5.37;62.36;99821.72;8224924;28;20047;-91
2022/01/09 17:45:20;;;;;;;2.28;1.67;;;6.80;56.90;;;5.20;62.33;99808.78;8215373;28;20047;-91